sensor_id;sensor_type;location;lat;lon;timestamp;pressure;altitude;pressure_sealevel;temperature;humidity
70206;BME280;57593;55.896;37.396;2023-03-20T00:00:25;99835.59;;;2.55;100.00
70206;BME280;57593;55.896;37.396;2023-03-20T00:00:56;99834.31;;;2.53;100.00
70206;BME280;57593;55.896;37.396;2023-03-20T00:01:29;99842.41;;;2.46;100.00
70206;BME280;57593;55.896;37.396;2023-03-20T00:02:00;99836.16;;;2.37;100.00
70206;BME280;57593;55.896;37.396;2023-03-20T00:02:31;99841.88;;;2.33;100.00
70206;BME280;57593;55.896;37.396;2023-03-20T00:03:02;99835.41;;;2.31;100.00
70206;BME280;57593;55.896;37.396;2023-03-20T00:03:32;99836.16;;;2.31;100.00
70206;BME280;57593;55.896;37.396;2023-03-20T00:04:03;99829.38;;;2.30;100.00
70206;BME280;57593;55.896;37.396;2023-03-20T00:04:34;99838.00;;;2.26;100.00
70206;BME280;57593;55.896;37.396;2023-03-20T00:05:14;99833.03;;;2.34;100.00
70206;BME280;57593;55.896;37.396;2023-03-20T00:05:45;99837.47;;;2.29;100.00
70206;BME280;57593;55.896;37.396;2023-03-20T00:06:18;99841.13;;;2.33;100.00
70206;BME280;57593;55.896;37.396;2023-03-20T00:06:49;99835.91;;;2.43;100.00
70206;BME280;57593;55.896;37.396;2023-03-20T00:07:20;99840.06;;;2.44;100.00
70206;BME280;57593;55.896;37.396;2023-03-20T00:07:51;99839.78;;;2.46;100.00
70206;BME280;57593;55.896;37.396;2023-03-20T00:08:22;99838.75;;;2.52;100.00
70206;BME280;57593;55.896;37.396;2023-03-20T00:08:54;99846.78;;;2.66;100.00
70206;BME280;57593;55.896;37.396;2023-03-20T00:09:26;99845.75;;;2.67;100.00
70206;BME280;57593;55.896;37.396;2023-03-20T00:09:57;99836.59;;;2.75;100.00
70206;BME280;57593;55.896;37.396;2023-03-20T00:10:35;99834.47;;;2.82;100.00
70206;BME280;57593;55.896;37.396;2023-03-20T00:11:20;99831.63;;;2.78;100.00
70206;BME280;57593;55.896;37.396;2023-03-20T00:11:52;99832.97;;;2.65;100.00
70206;BME280;57593;55.896;37.396;2023-03-20T00:12:24;99839.25;;;2.59;100.00
70206;BME280;57593;55.896;37.396;2023-03-20T00:12:56;99842.88;;;2.74;100.00
70206;BME280;57593;55.896;37.396;2023-03-20T00:13:26;99836.59;;;2.69;100.00
70206;BME280;57593;55.896;37.396;2023-03-20T00:14:00;99836.63;;;2.64;100.00
70206;BME280;57593;55.896;37.396;2023-03-20T00:14:33;99831.41;;;2.64;100.00
70206;BME280;57593;55.896;37.396;2023-03-20T00:15:06;99826.47;;;2.58;100.00
70206;BME280;57593;55.896;37.396;2023-03-20T00:15:44;99820.50;;;2.57;100.00
70206;BME280;57593;55.896;37.396;2023-03-20T00:16:15;99831.16;;;2.61;100.00
70206;BME280;57593;55.896;37.396;2023-03-20T00:16:47;99827.50;;;2.57;100.00
70206;BME280;57593;55.896;37.396;2023-03-20T00:17:19;99830.63;;;2.69;100.00
70206;BME280;57593;55.896;37.396;2023-03-20T00:17:50;99836.88;;;2.68;100.00
70206;BME280;57593;55.896;37.396;2023-03-20T00:18:22;99830.13;;;2.62;100.00
70206;BME280;57593;55.896;37.396;2023-03-20T00:18:54;99834.31;;;2.53;100.00
70206;BME280;57593;55.896;37.396;2023-03-20T00:19:27;99829.88;;;2.53;100.00
70206;BME280;57593;55.896;37.396;2023-03-20T00:19:58;99839.00;;;2.56;100.00
70206;BME280;57593;55.896;37.396;2023-03-20T00:20:29;99833.00;;;2.50;100.00
70206;BME280;57593;55.896;37.396;2023-03-20T00:21:00;99835.34;;;2.57;100.00
70206;BME280;57593;55.896;37.396;2023-03-20T00:21:31;99836.88;;;2.63;100.00
70206;BME280;57593;55.896;37.396;2023-03-20T00:22:03;99840.56;;;2.62;100.00
70206;BME280;57593;55.896;37.396;2023-03-20T00:22:33;99834.31;;;2.58;100.00
70206;BME280;57593;55.896;37.396;2023-03-20T00:23:04;99827.00;;;2.55;100.00
70206;BME280;57593;55.896;37.396;2023-03-20T00:23:35;99827.81;;;2.45;100.00
70206;BME280;57593;55.896;37.396;2023-03-20T00:24:06;99839.00;;;2.61;100.00
70206;BME280;57593;55.896;37.396;2023-03-20T00:24:37;99826.72;;;2.72;100.00
70206;BME280;57593;55.896;37.396;2023-03-20T00:25:15;99824.34;;;2.75;100.00
70206;BME280;57593;55.896;37.396;2023-03-20T00:25:46;99827.97;;;2.74;100.00
70206;BME280;57593;55.896;37.396;2023-03-20T00:26:18;99824.66;;;2.58;100.00
70206;BME280;57593;55.896;37.396;2023-03-20T00:26:50;99823.09;;;2.57;100.00
70206;BME280;57593;55.896;37.396;2023-03-20T00:27:21;99821.00;;;2.49;100.00
70206;BME280;57593;55.896;37.396;2023-03-20T00:27:51;99833.78;;;2.50;100.00
70206;BME280;57593;55.896;37.396;2023-03-20T00:28:42;99833.03;;;2.40;100.00
70206;BME280;57593;55.896;37.396;2023-03-20T00:29:24;99829.63;;;2.49;100.00
70206;BME280;57593;55.896;37.396;2023-03-20T00:29:55;99828.31;;;2.47;100.00
70206;BME280;57593;55.896;37.396;2023-03-20T00:30:28;99827.50;;;2.57;100.00
70206;BME280;57593;55.896;37.396;2023-03-20T00:31:00;99835.31;;;2.67;100.00
70206;BME280;57593;55.896;37.396;2023-03-20T00:31:33;99821.75;;;2.70;100.00
70206;BME280;57593;55.896;37.396;2023-03-20T00:32:10;99832.19;;;2.65;100.00
70206;BME280;57593;55.896;37.396;2023-03-20T00:32:42;99823.84;;;2.73;100.00
70206;BME280;57593;55.896;37.396;2023-03-20T00:33:14;99825.09;;;2.76;100.00
70206;BME280;57593;55.896;37.396;2023-03-20T00:33:46;99821.69;;;2.80;100.00
70206;BME280;57593;55.896;37.396;2023-03-20T00:34:18;99823.03;;;2.73;100.00
70206;BME280;57593;55.896;37.396;2023-03-20T00:34:50;99830.63;;;2.69;100.00
70206;BME280;57593;55.896;37.396;2023-03-20T00:35:29;99826.72;;;2.61;100.00
70206;BME280;57593;55.896;37.396;2023-03-20T00:36:00;99824.13;;;2.56;100.00
70206;BME280;57593;55.896;37.396;2023-03-20T00:36:32;99833.78;;;2.50;100.00
70206;BME280;57593;55.896;37.396;2023-03-20T00:37:03;99831.44;;;2.49;100.00
70206;BME280;57593;55.896;37.396;2023-03-20T00:37:34;99827.28;;;2.43;100.00
70206;BME280;57593;55.896;37.396;2023-03-20T00:38:05;99824.66;;;2.58;100.00
70206;BME280;57593;55.896;37.396;2023-03-20T00:38:38;99835.34;;;2.62;100.00
70206;BME280;57593;55.896;37.396;2023-03-20T00:39:09;99824.91;;;2.67;100.00
70206;BME280;57593;55.896;37.396;2023-03-20T00:39:40;99827.25;;;2.58;100.00
70206;BME280;57593;55.896;37.396;2023-03-20T00:40:11;99823.06;;;2.67;100.00
70206;BME280;57593;55.896;37.396;2023-03-20T00:40:45;99817.31;;;2.70;100.00
70206;BME280;57593;55.896;37.396;2023-03-20T00:41:27;99824.38;;;2.70;100.00
70206;BME280;57593;55.896;37.396;2023-03-20T00:42:03;99816.00;;;2.68;100.00
70206;BME280;57593;55.896;37.396;2023-03-20T00:42:37;99819.69;;;2.67;100.00
70206;BME280;57593;55.896;37.396;2023-03-20T00:43:08;99824.41;;;2.44;100.00
70206;BME280;57593;55.896;37.396;2023-03-20T00:43:39;99823.38;;;2.56;100.00
70206;BME280;57593;55.896;37.396;2023-03-20T00:44:30;99817.28;;;2.76;100.00
70206;BME280;57593;55.896;37.396;2023-03-20T00:45:02;99823.31;;;2.66;100.00
70206;BME280;57593;55.896;37.396;2023-03-20T00:45:34;99811.84;;;2.67;100.00
70206;BME280;57593;55.896;37.396;2023-03-20T00:46:10;99821.28;;;2.53;100.00
70206;BME280;57593;55.896;37.396;2023-03-20T00:46:43;99823.88;;;2.47;100.00
70206;BME280;57593;55.896;37.396;2023-03-20T00:47:18;99826.22;;;2.59;100.00
70206;BME280;57593;55.896;37.396;2023-03-20T00:47:50;99819.19;;;2.55;100.00
70206;BME280;57593;55.896;37.396;2023-03-20T00:48:21;99823.59;;;2.64;100.00
70206;BME280;57593;55.896;37.396;2023-03-20T00:48:53;99818.88;;;2.72;100.00
70206;BME280;57593;55.896;37.396;2023-03-20T00:49:33;99820.16;;;2.79;100.00
70206;BME280;57593;55.896;37.396;2023-03-20T00:50:16;99813.63;;;2.77;100.00
70206;BME280;57593;55.896;37.396;2023-03-20T00:50:46;99806.09;;;2.65;100.00
70206;BME280;57593;55.896;37.396;2023-03-20T00:51:19;99810.84;;;2.53;100.00
70206;BME280;57593;55.896;37.396;2023-03-20T00:51:49;99819.22;;;2.39;100.00
70206;BME280;57593;55.896;37.396;2023-03-20T00:52:21;99823.38;;;2.56;100.00
70206;BME280;57593;55.896;37.396;2023-03-20T00:52:56;99820.22;;;2.54;100.00
70206;BME280;57593;55.896;37.396;2023-03-20T00:53:27;99812.69;;;2.47;100.00
70206;BME280;57593;55.896;37.396;2023-03-20T00:53:58;99817.09;;;2.62;100.00
70206;BME280;57593;55.896;37.396;2023-03-20T00:54:29;99813.66;;;2.72;100.00
70206;BME280;57593;55.896;37.396;2023-03-20T00:55:03;99808.19;;;2.63;100.00
70206;BME280;57593;55.896;37.396;2023-03-20T00:55:34;99810.78;;;2.68;100.00
70206;BME280;57593;55.896;37.396;2023-03-20T00:56:05;99814.72;;;2.65;100.00
70206;BME280;57593;55.896;37.396;2023-03-20T00:56:42;99810.50;;;2.80;100.00
70206;BME280;57593;55.896;37.396;2023-03-20T00:57:20;99807.38;;;2.78;100.00
70206;BME280;57593;55.896;37.396;2023-03-20T00:57:55;99807.34;;;2.83;100.00
70206;BME280;57593;55.896;37.396;2023-03-20T00:58:27;99807.66;;;2.76;100.00
70206;BME280;57593;55.896;37.396;2023-03-20T00:58:59;99815.94;;;2.88;100.00
70206;BME280;57593;55.896;37.396;2023-03-20T00:59:35;99809.41;;;2.91;100.00
70206;BME280;57593;55.896;37.396;2023-03-20T01:00:23;99810.47;;;2.85;100.00
70206;BME280;57593;55.896;37.396;2023-03-20T01:00:55;99815.97;;;2.78;100.00
70206;BME280;57593;55.896;37.396;2023-03-20T01:01:26;99811.00;;;2.82;100.00
70206;BME280;57593;55.896;37.396;2023-03-20T01:01:58;99806.59;;;2.77;100.00
70206;BME280;57593;55.896;37.396;2023-03-20T01:02:31;99806.31;;;2.79;100.00
70206;BME280;57593;55.896;37.396;2023-03-20T01:03:16;99806.34;;;2.74;100.00
70206;BME280;57593;55.896;37.396;2023-03-20T01:03:47;99806.59;;;2.72;100.00
70206;BME280;57593;55.896;37.396;2023-03-20T01:04:19;99812.13;;;2.60;100.00
70206;BME280;57593;55.896;37.396;2023-03-20T01:04:50;99805.03;;;2.71;100.00
70206;BME280;57593;55.896;37.396;2023-03-20T01:05:23;99804.00;;;2.72;100.00
70206;BME280;57593;55.896;37.396;2023-03-20T01:05:57;99806.34;;;2.74;100.00
70206;BME280;57593;55.896;37.396;2023-03-20T01:06:28;99809.47;;;2.70;100.00
70206;BME280;57593;55.896;37.396;2023-03-20T01:07:00;99810.78;;;2.73;100.00
70206;BME280;57593;55.896;37.396;2023-03-20T01:07:31;99806.84;;;2.76;100.00
70206;BME280;57593;55.896;37.396;2023-03-20T01:08:09;99809.75;;;2.69;100.00
70206;BME280;57593;55.896;37.396;2023-03-20T01:08:41;99802.44;;;2.71;100.00
70206;BME280;57593;55.896;37.396;2023-03-20T01:09:12;99806.06;;;2.75;100.00
70206;BME280;57593;55.896;37.396;2023-03-20T01:09:42;99809.47;;;2.81;100.00
70206;BME280;57593;55.896;37.396;2023-03-20T01:10:13;99799.03;;;2.81;100.00
70206;BME280;57593;55.896;37.396;2023-03-20T01:10:45;99801.63;;;2.76;100.00
70206;BME280;57593;55.896;37.396;2023-03-20T01:11:20;99808.16;;;2.78;100.00
70206;BME280;57593;55.896;37.396;2023-03-20T01:11:52;99807.66;;;2.71;100.00
70206;BME280;57593;55.896;37.396;2023-03-20T01:12:23;99812.06;;;2.76;100.00
70206;BME280;57593;55.896;37.396;2023-03-20T01:12:55;99806.88;;;2.70;100.00
70206;BME280;57593;55.896;37.396;2023-03-20T01:13:29;99811.06;;;2.72;100.00
70206;BME280;57593;55.896;37.396;2023-03-20T01:14:00;99813.09;;;2.80;100.00
70206;BME280;57593;55.896;37.396;2023-03-20T01:14:31;99811.00;;;2.87;100.00
70206;BME280;57593;55.896;37.396;2023-03-20T01:15:02;99816.50;;;2.85;100.00
70206;BME280;57593;55.896;37.396;2023-03-20T01:15:34;99812.28;;;2.90;100.00
70206;BME280;57593;55.896;37.396;2023-03-20T01:16:17;99806.56;;;2.87;100.00
70206;BME280;57593;55.896;37.396;2023-03-20T01:16:48;99809.19;;;2.77;100.00
70206;BME280;57593;55.896;37.396;2023-03-20T01:17:20;99804.81;;;2.67;100.00
70206;BME280;57593;55.896;37.396;2023-03-20T01:17:52;99812.34;;;2.69;100.00
70206;BME280;57593;55.896;37.396;2023-03-20T01:18:24;99813.13;;;2.69;100.00
70206;BME280;57593;55.896;37.396;2023-03-20T01:18:56;99806.66;;;2.57;100.00
70206;BME280;57593;55.896;37.396;2023-03-20T01:19:27;99810.31;;;2.50;100.00
70206;BME280;57593;55.896;37.396;2023-03-20T01:19:58;99798.84;;;2.51;100.00
70206;BME280;57593;55.896;37.396;2023-03-20T01:20:29;99807.97;;;2.49;100.00
70206;BME280;57593;55.896;37.396;2023-03-20T01:21:00;99803.53;;;2.55;100.00
70206;BME280;57593;55.896;37.396;2023-03-20T01:21:31;99810.31;;;2.50;100.00
70206;BME280;57593;55.896;37.396;2023-03-20T01:22:01;99805.63;;;2.58;100.00
70206;BME280;57593;55.896;37.396;2023-03-20T01:22:32;99807.44;;;2.57;100.00
70206;BME280;57593;55.896;37.396;2023-03-20T01:23:03;99806.16;;;2.55;100.00
70206;BME280;57593;55.896;37.396;2023-03-20T01:23:33;99804.56;;;2.54;100.00
70206;BME280;57593;55.896;37.396;2023-03-20T01:24:04;99807.97;;;2.49;100.00
70206;BME280;57593;55.896;37.396;2023-03-20T01:24:35;99803.25;;;2.61;100.00
70206;BME280;57593;55.896;37.396;2023-03-20T01:25:06;99800.41;;;2.58;100.00
70206;BME280;57593;55.896;37.396;2023-03-20T01:25:38;99804.06;;;2.62;100.00
70206;BME280;57593;55.896;37.396;2023-03-20T01:26:37;99797.56;;;2.54;100.00
70206;BME280;57593;55.896;37.396;2023-03-20T01:27:12;99796.75;;;2.59;100.00
70206;BME280;57593;55.896;37.396;2023-03-20T01:27:48;99800.13;;;2.64;100.00
70206;BME280;57593;55.896;37.396;2023-03-20T01:28:22;99796.75;;;2.54;100.00
70206;BME280;57593;55.896;37.396;2023-03-20T01:28:53;99805.09;;;2.50;100.00
70206;BME280;57593;55.896;37.396;2023-03-20T01:29:25;99795.97;;;2.53;100.00
70206;BME280;57593;55.896;37.396;2023-03-20T01:30:00;99803.03;;;2.53;100.00
70206;BME280;57593;55.896;37.396;2023-03-20T01:30:31;99804.88;;;2.42;100.00
70206;BME280;57593;55.896;37.396;2023-03-20T01:31:01;99804.06;;;2.51;100.00
70206;BME280;57593;55.896;37.396;2023-03-20T01:31:33;99801.47;;;2.41;100.00
70206;BME280;57593;55.896;37.396;2023-03-20T01:32:18;99799.34;;;2.54;100.00
70206;BME280;57593;55.896;37.396;2023-03-20T01:32:55;99799.63;;;2.52;100.00
70206;BME280;57593;55.896;37.396;2023-03-20T01:33:26;99803.03;;;2.47;100.00
70206;BME280;57593;55.896;37.396;2023-03-20T01:33:59;99798.88;;;2.46;100.00
70206;BME280;57593;55.896;37.396;2023-03-20T01:34:30;99797.03;;;2.57;100.00
70206;BME280;57593;55.896;37.396;2023-03-20T01:35:01;99795.19;;;2.47;100.00
70206;BME280;57593;55.896;37.396;2023-03-20T01:35:31;99793.41;;;2.48;100.00
70206;BME280;57593;55.896;37.396;2023-03-20T01:36:09;99796.78;;;2.48;100.00
70206;BME280;57593;55.896;37.396;2023-03-20T01:36:48;99792.84;;;2.46;100.00
70206;BME280;57593;55.896;37.396;2023-03-20T01:37:26;99797.53;;;2.59;100.00
70206;BME280;57593;55.896;37.396;2023-03-20T01:37:58;99797.53;;;2.59;100.00
70206;BME280;57593;55.896;37.396;2023-03-20T01:38:30;99797.81;;;2.53;100.00
70206;BME280;57593;55.896;37.396;2023-03-20T01:39:03;99792.84;;;2.56;100.00
70206;BME280;57593;55.896;37.396;2023-03-20T01:39:35;99793.63;;;2.57;100.00
70206;BME280;57593;55.896;37.396;2023-03-20T01:41:07;99784.78;;;2.47;100.00
70206;BME280;57593;55.896;37.396;2023-03-20T01:41:43;99797.31;;;2.35;100.00
70206;BME280;57593;55.896;37.396;2023-03-20T01:42:15;99788.94;;;2.54;100.00
70206;BME280;57593;55.896;37.396;2023-03-20T01:42:47;99787.38;;;2.53;100.00
70206;BME280;57593;55.896;37.396;2023-03-20T01:43:20;99793.09;;;2.55;100.00
70206;BME280;57593;55.896;37.396;2023-03-20T01:43:53;99792.13;;;2.30;100.00
70206;BME280;57593;55.896;37.396;2023-03-20T01:44:29;99789.72;;;2.54;100.00
70206;BME280;57593;55.896;37.396;2023-03-20T01:45:19;99787.38;;;2.47;100.00
70206;BME280;57593;55.896;37.396;2023-03-20T01:46:14;99783.22;;;2.46;100.00
70206;BME280;57593;55.896;37.396;2023-03-20T01:46:49;99789.50;;;2.30;100.00
70206;BME280;57593;55.896;37.396;2023-03-20T01:47:23;99787.13;;;2.44;100.00
70206;BME280;57593;55.896;37.396;2023-03-20T01:47:59;99790.03;;;2.37;100.00
70206;BME280;57593;55.896;37.396;2023-03-20T01:50:21;99790.53;;;2.39;100.00
70206;BME280;57593;55.896;37.396;2023-03-20T01:50:53;99782.75;;;2.34;100.00
70206;BME280;57593;55.896;37.396;2023-03-20T01:51:29;99782.22;;;2.37;100.00
70206;BME280;57593;55.896;37.396;2023-03-20T01:52:04;99782.72;;;2.29;100.00
70206;BME280;57593;55.896;37.396;2023-03-20T01:52:35;99781.97;;;2.28;100.00
70206;BME280;57593;55.896;37.396;2023-03-20T01:53:21;99774.91;;;2.34;100.00
70206;BME280;57593;55.896;37.396;2023-03-20T01:54:02;99781.94;;;2.33;100.00
70206;BME280;57593;55.896;37.396;2023-03-20T01:54:38;99784.84;;;2.22;100.00
70206;BME280;57593;55.896;37.396;2023-03-20T01:55:12;99780.41;;;2.22;100.00
70206;BME280;57593;55.896;37.396;2023-03-20T01:55:46;99780.94;;;2.14;100.00
70206;BME280;57593;55.896;37.396;2023-03-20T01:56:19;99777.03;;;2.06;100.00
70206;BME280;57593;55.896;37.396;2023-03-20T01:57:09;99776.47;;;2.20;100.00
70206;BME280;57593;55.896;37.396;2023-03-20T01:57:42;99782.75;;;2.24;100.00
70206;BME280;57593;55.896;37.396;2023-03-20T01:58:19;99780.16;;;2.19;100.00
70206;BME280;57593;55.896;37.396;2023-03-20T01:59:19;99780.41;;;2.22;100.00
70206;BME280;57593;55.896;37.396;2023-03-20T02:00:19;99784.31;;;2.20;100.00
70206;BME280;57593;55.896;37.396;2023-03-20T02:00:51;99779.09;;;2.30;100.00
70206;BME280;57593;55.896;37.396;2023-03-20T02:01:25;99781.72;;;2.25;100.00
70206;BME280;57593;55.896;37.396;2023-03-20T02:01:58;99779.09;;;2.25;100.00
70206;BME280;57593;55.896;37.396;2023-03-20T02:02:30;99769.72;;;2.19;100.00
70206;BME280;57593;55.896;37.396;2023-03-20T02:03:04;99785.34;;;2.24;100.00
70206;BME280;57593;55.896;37.396;2023-03-20T02:03:55;99785.88;;;2.31;100.00
70206;BME280;57593;55.896;37.396;2023-03-20T02:04:45;99777.53;;;2.34;100.00
70206;BME280;57593;55.896;37.396;2023-03-20T02:05:21;99779.09;;;2.30;100.00
70206;BME280;57593;55.896;37.396;2023-03-20T02:05:54;99778.03;;;2.36;100.00
70206;BME280;57593;55.896;37.396;2023-03-20T02:06:25;99781.19;;;2.28;100.00
70206;BME280;57593;55.896;37.396;2023-03-20T02:07:20;99779.88;;;2.25;100.00
70206;BME280;57593;55.896;37.396;2023-03-20T02:08:17;99780.41;;;2.32;100.00
70206;BME280;57593;55.896;37.396;2023-03-20T02:08:51;99775.97;;;2.23;100.00
70206;BME280;57593;55.896;37.396;2023-03-20T02:09:22;99779.84;;;2.30;100.00
70206;BME280;57593;55.896;37.396;2023-03-20T02:09:54;99778.56;;;2.28;100.00
70206;BME280;57593;55.896;37.396;2023-03-20T02:10:34;99780.09;;;2.39;100.00
70206;BME280;57593;55.896;37.396;2023-03-20T02:11:21;99774.66;;;2.25;100.00
70206;BME280;57593;55.896;37.396;2023-03-20T02:11:53;99780.66;;;2.31;100.00
70206;BME280;57593;55.896;37.396;2023-03-20T02:12:26;99777.50;;;2.39;100.00
70206;BME280;57593;55.896;37.396;2023-03-20T02:12:57;99780.63;;;2.41;100.00
70206;BME280;57593;55.896;37.396;2023-03-20T02:13:38;99768.13;;;2.33;100.00
70206;BME280;57593;55.896;37.396;2023-03-20T02:14:10;99773.31;;;2.38;100.00
70206;BME280;57593;55.896;37.396;2023-03-20T02:14:54;99777.22;;;2.46;100.00
70206;BME280;57593;55.896;37.396;2023-03-20T02:15:56;99768.63;;;2.35;100.00
70206;BME280;57593;55.896;37.396;2023-03-20T02:16:48;99770.97;;;2.37;100.00
70206;BME280;57593;55.896;37.396;2023-03-20T02:17:41;99763.97;;;2.27;100.00
70206;BME280;57593;55.896;37.396;2023-03-20T02:18:13;99769.16;;;2.32;100.00
70206;BME280;57593;55.896;37.396;2023-03-20T02:18:47;99775.97;;;2.28;100.00
70206;BME280;57593;55.896;37.396;2023-03-20T02:19:41;99763.16;;;2.37;100.00
70206;BME280;57593;55.896;37.396;2023-03-20T02:28:58;99758.78;;;2.22;100.00
70206;BME280;57593;55.896;37.396;2023-03-20T02:35:01;99752.78;;;2.26;100.00
70206;BME280;57593;55.896;37.396;2023-03-20T02:38:32;99748.06;;;2.33;100.00
70206;BME280;57593;55.896;37.396;2023-03-20T02:40:18;99745.72;;;2.37;100.00
70206;BME280;57593;55.896;37.396;2023-03-20T02:40:58;99747.81;;;2.25;100.00
70206;BME280;57593;55.896;37.396;2023-03-20T02:42:38;99753.78;;;2.30;100.00
70206;BME280;57593;55.896;37.396;2023-03-20T02:43:20;99752.50;;;2.23;100.00
70206;BME280;57593;55.896;37.396;2023-03-20T02:44:07;99750.16;;;2.21;100.00
70206;BME280;57593;55.896;37.396;2023-03-20T02:44:55;99753.56;;;2.27;100.00
70206;BME280;57593;55.896;37.396;2023-03-20T02:45:40;99753.81;;;2.36;100.00
70206;BME280;57593;55.896;37.396;2023-03-20T02:47:16;99743.88;;;2.38;100.00
70206;BME280;57593;55.896;37.396;2023-03-20T02:49:00;99742.03;;;2.38;100.00
70206;BME280;57593;55.896;37.396;2023-03-20T02:50:14;99749.34;;;2.36;100.00
70206;BME280;57593;55.896;37.396;2023-03-20T02:50:52;99744.94;;;2.31;100.00
70206;BME280;57593;55.896;37.396;2023-03-20T02:51:35;99747.78;;;2.40;100.00
70206;BME280;57593;55.896;37.396;2023-03-20T02:52:18;99746.22;;;2.39;100.00
70206;BME280;57593;55.896;37.396;2023-03-20T02:52:58;99749.34;;;2.36;100.00
70206;BME280;57593;55.896;37.396;2023-03-20T02:53:51;99754.06;;;2.29;100.00
70206;BME280;57593;55.896;37.396;2023-03-20T02:55:14;99745.19;;;2.35;100.00
70206;BME280;57593;55.896;37.396;2023-03-20T02:56:02;99745.19;;;2.35;100.00
70206;BME280;57593;55.896;37.396;2023-03-20T02:56:46;99753.25;;;2.44;100.00
70206;BME280;57593;55.896;37.396;2023-03-20T02:58:56;99750.91;;;2.42;100.00
70206;BME280;57593;55.896;37.396;2023-03-20T03:00:25;99735.81;;;2.34;100.00
70206;BME280;57593;55.896;37.396;2023-03-20T03:01:08;99743.16;;;2.22;100.00
70206;BME280;57593;55.896;37.396;2023-03-20T03:01:45;99746.25;;;2.29;100.00
70206;BME280;57593;55.896;37.396;2023-03-20T03:02:26;99736.84;;;2.33;100.00
70206;BME280;57593;55.896;37.396;2023-03-20T03:03:17;99727.50;;;2.16;100.00
70206;BME280;57593;55.896;37.396;2023-03-20T03:03:55;99734.53;;;2.16;100.00
70206;BME280;57593;55.896;37.396;2023-03-20T03:04:32;99745.00;;;2.06;100.00
70206;BME280;57593;55.896;37.396;2023-03-20T03:05:31;99734.81;;;2.25;100.00
70206;BME280;57593;55.896;37.396;2023-03-20T03:06:21;99739.47;;;2.28;100.00
70206;BME280;57593;55.896;37.396;2023-03-20T03:06:55;99732.75;;;2.06;100.00
70206;BME280;57593;55.896;37.396;2023-03-20T03:07:31;99739.78;;;2.06;100.00
70206;BME280;57593;55.896;37.396;2023-03-20T03:08:04;99731.19;;;2.10;100.00
70206;BME280;57593;55.896;37.396;2023-03-20T03:08:42;99727.00;;;2.09;100.00
70206;BME280;57593;55.896;37.396;2023-03-20T03:09:23;99723.38;;;2.10;100.00
70206;BME280;57593;55.896;37.396;2023-03-20T03:10:02;99726.78;;;1.95;100.00
70206;BME280;57593;55.896;37.396;2023-03-20T03:10:42;99727.53;;;2.06;100.00
70206;BME280;57593;55.896;37.396;2023-03-20T03:11:14;99728.31;;;2.07;100.00
70206;BME280;57593;55.896;37.396;2023-03-20T03:11:54;99733.53;;;2.02;100.00
70206;BME280;57593;55.896;37.396;2023-03-20T03:12:30;99731.69;;;2.12;100.00
70206;BME280;57593;55.896;37.396;2023-03-20T03:13:04;99729.34;;;2.11;100.00
70206;BME280;57593;55.896;37.396;2023-03-20T03:13:51;99721.50;;;2.16;100.00
70206;BME280;57593;55.896;37.396;2023-03-20T03:14:35;99725.44;;;2.19;100.00
70206;BME280;57593;55.896;37.396;2023-03-20T03:15:19;99718.91;;;2.16;100.00
70206;BME280;57593;55.896;37.396;2023-03-20T03:15:58;99726.72;;;2.16;100.00
70206;BME280;57593;55.896;37.396;2023-03-20T03:16:34;99720.19;;;2.24;100.00
70206;BME280;57593;55.896;37.396;2023-03-20T03:17:07;99719.94;;;2.25;100.00
70206;BME280;57593;55.896;37.396;2023-03-20T03:17:41;99718.16;;;2.10;100.00
70206;BME280;57593;55.896;37.396;2023-03-20T03:18:18;99733.28;;;1.98;100.00
70206;BME280;57593;55.896;37.396;2023-03-20T03:19:06;99717.94;;;1.81;100.00
70206;BME280;57593;55.896;37.396;2023-03-20T03:19:42;99726.78;;;1.90;100.00
70206;BME280;57593;55.896;37.396;2023-03-20T03:20:21;99726.53;;;1.76;100.00
70206;BME280;57593;55.896;37.396;2023-03-20T03:20:56;99723.41;;;1.85;100.00
70206;BME280;57593;55.896;37.396;2023-03-20T03:21:29;99721.31;;;1.71;100.00
70206;BME280;57593;55.896;37.396;2023-03-20T03:22:03;99725.50;;;1.67;100.00
70206;BME280;57593;55.896;37.396;2023-03-20T03:22:35;99722.09;;;1.67;100.00
70206;BME280;57593;55.896;37.396;2023-03-20T03:23:06;99726.53;;;1.71;100.00
70206;BME280;57593;55.896;37.396;2023-03-20T03:23:55;99724.97;;;1.70;100.00
70206;BME280;57593;55.896;37.396;2023-03-20T03:24:32;99724.69;;;1.67;100.00
70206;BME280;57593;55.896;37.396;2023-03-20T03:25:03;99722.88;;;1.57;100.00
70206;BME280;57593;55.896;37.396;2023-03-20T03:25:38;99731.50;;;1.57;100.00
70206;BME280;57593;55.896;37.396;2023-03-20T03:26:23;99724.47;;;1.53;100.00
70206;BME280;57593;55.896;37.396;2023-03-20T03:27:00;99728.88;;;1.47;100.00
70206;BME280;57593;55.896;37.396;2023-03-20T03:27:36;99729.41;;;1.39;100.00
70206;BME280;57593;55.896;37.396;2023-03-20T03:28:27;99733.56;;;1.55;100.00
70206;BME280;57593;55.896;37.396;2023-03-20T03:29:03;99730.69;;;1.57;100.00
70206;BME280;57593;55.896;37.396;2023-03-20T03:29:37;99731.22;;;1.54;100.00
70206;BME280;57593;55.896;37.396;2023-03-20T03:30:19;99732.53;;;1.46;100.00
70206;BME280;57593;55.896;37.396;2023-03-20T03:30:55;99732.78;;;1.44;100.00
70206;BME280;57593;55.896;37.396;2023-03-20T03:31:27;99733.81;;;1.38;100.00
70206;BME280;57593;55.896;37.396;2023-03-20T03:32:00;99737.47;;;1.37;100.00
70206;BME280;57593;55.896;37.396;2023-03-20T03:32:38;99727.03;;;1.27;100.00
70206;BME280;57593;55.896;37.396;2023-03-20T03:33:13;99732.75;;;1.24;100.00
70206;BME280;57593;55.896;37.396;2023-03-20T03:33:49;99731.19;;;1.23;100.00
70206;BME280;57593;55.896;37.396;2023-03-20T03:34:22;99726.75;;;1.13;100.00
70206;BME280;57593;55.896;37.396;2023-03-20T03:34:54;99721.81;;;1.17;100.00